sensor_id;sensor_type;location;lat;lon;timestamp;temperature;humidity
57753;DHT22;43583;53.132;6.574;2022-07-23T00:00:08;13.50;99.90
57753;DHT22;43583;53.132;6.574;2022-07-23T00:02:34;13.60;99.90
57753;DHT22;43583;53.132;6.574;2022-07-23T00:05:00;13.60;99.90
57753;DHT22;43583;53.132;6.574;2022-07-23T00:07:25;13.60;99.90
57753;DHT22;43583;53.132;6.574;2022-07-23T00:09:51;13.60;99.90
57753;DHT22;43583;53.132;6.574;2022-07-23T00:12:16;13.60;99.90
57753;DHT22;43583;53.132;6.574;2022-07-23T00:14:42;13.70;99.90
57753;DHT22;43583;53.132;6.574;2022-07-23T00:17:07;13.60;99.90
57753;DHT22;43583;53.132;6.574;2022-07-23T00:19:33;13.60;99.90
57753;DHT22;43583;53.132;6.574;2022-07-23T00:21:59;13.60;99.90
57753;DHT22;43583;53.132;6.574;2022-07-23T00:24:24;13.50;99.90
57753;DHT22;43583;53.132;6.574;2022-07-23T00:26:50;13.50;99.90
57753;DHT22;43583;53.132;6.574;2022-07-23T00:29:15;13.50;99.90
57753;DHT22;43583;53.132;6.574;2022-07-23T00:31:41;13.40;99.90
57753;DHT22;43583;53.132;6.574;2022-07-23T00:34:06;13.40;99.90
57753;DHT22;43583;53.132;6.574;2022-07-23T00:36:32;13.40;99.90
57753;DHT22;43583;53.132;6.574;2022-07-23T00:38:58;13.50;99.90
57753;DHT22;43583;53.132;6.574;2022-07-23T00:41:23;13.40;99.90
57753;DHT22;43583;53.132;6.574;2022-07-23T00:43:49;13.40;99.90
57753;DHT22;43583;53.132;6.574;2022-07-23T00:46:19;13.40;99.90
57753;DHT22;43583;53.132;6.574;2022-07-23T00:48:45;13.50;99.90
57753;DHT22;43583;53.132;6.574;2022-07-23T00:51:11;13.50;99.90
57753;DHT22;43583;53.132;6.574;2022-07-23T00:53:36;13.50;99.90
57753;DHT22;43583;53.132;6.574;2022-07-23T00:56:02;13.50;99.90
57753;DHT22;43583;53.132;6.574;2022-07-23T00:58:28;13.50;99.90
57753;DHT22;43583;53.132;6.574;2022-07-23T01:00:53;13.50;99.90
57753;DHT22;43583;53.132;6.574;2022-07-23T01:03:19;13.50;99.90
57753;DHT22;43583;53.132;6.574;2022-07-23T01:05:45;13.50;99.90
57753;DHT22;43583;53.132;6.574;2022-07-23T01:08:10;13.50;99.90
57753;DHT22;43583;53.132;6.574;2022-07-23T01:10:36;13.40;99.90
57753;DHT22;43583;53.132;6.574;2022-07-23T01:13:04;13.40;99.90
57753;DHT22;43583;53.132;6.574;2022-07-23T01:15:31;13.40;99.90
57753;DHT22;43583;53.132;6.574;2022-07-23T01:17:57;13.40;99.90
57753;DHT22;43583;53.132;6.574;2022-07-23T01:20:23;13.40;99.90
57753;DHT22;43583;53.132;6.574;2022-07-23T01:22:49;13.30;99.90
57753;DHT22;43583;53.132;6.574;2022-07-23T01:25:15;13.20;99.90
57753;DHT22;43583;53.132;6.574;2022-07-23T01:27:40;13.10;99.90
57753;DHT22;43583;53.132;6.574;2022-07-23T01:30:08;13.10;99.90
57753;DHT22;43583;53.132;6.574;2022-07-23T01:32:33;13.00;99.90
57753;DHT22;43583;53.132;6.574;2022-07-23T01:34:59;13.00;99.90
57753;DHT22;43583;53.132;6.574;2022-07-23T01:37:25;12.90;99.90
57753;DHT22;43583;53.132;6.574;2022-07-23T01:39:50;12.80;99.90
57753;DHT22;43583;53.132;6.574;2022-07-23T01:42:16;12.70;99.90
57753;DHT22;43583;53.132;6.574;2022-07-23T01:44:41;12.60;99.90
57753;DHT22;43583;53.132;6.574;2022-07-23T01:47:07;12.60;99.90
57753;DHT22;43583;53.132;6.574;2022-07-23T01:49:32;12.50;99.90
57753;DHT22;43583;53.132;6.574;2022-07-23T01:51:58;12.40;99.90
57753;DHT22;43583;53.132;6.574;2022-07-23T01:54:31;12.30;99.90
57753;DHT22;43583;53.132;6.574;2022-07-23T01:56:57;12.20;99.90
57753;DHT22;43583;53.132;6.574;2022-07-23T01:59:23;12.20;99.90
57753;DHT22;43583;53.132;6.574;2022-07-23T02:01:49;12.10;99.90
57753;DHT22;43583;53.132;6.574;2022-07-23T02:04:19;12.10;99.90
57753;DHT22;43583;53.132;6.574;2022-07-23T02:06:45;12.00;99.90
57753;DHT22;43583;53.132;6.574;2022-07-23T02:09:10;11.90;99.90
57753;DHT22;43583;53.132;6.574;2022-07-23T02:11:36;11.90;99.90
57753;DHT22;43583;53.132;6.574;2022-07-23T02:14:02;11.80;99.90
57753;DHT22;43583;53.132;6.574;2022-07-23T02:16:27;11.70;99.90
57753;DHT22;43583;53.132;6.574;2022-07-23T02:18:53;11.70;99.90
57753;DHT22;43583;53.132;6.574;2022-07-23T02:21:18;11.60;99.90
57753;DHT22;43583;53.132;6.574;2022-07-23T02:23:44;11.60;99.90
57753;DHT22;43583;53.132;6.574;2022-07-23T02:26:10;11.50;99.90
57753;DHT22;43583;53.132;6.574;2022-07-23T02:28:35;11.50;99.90
57753;DHT22;43583;53.132;6.574;2022-07-23T02:31:01;11.40;99.90
57753;DHT22;43583;53.132;6.574;2022-07-23T02:33:26;11.40;99.90
57753;DHT22;43583;53.132;6.574;2022-07-23T02:35:52;11.40;99.90
57753;DHT22;43583;53.132;6.574;2022-07-23T02:38:17;11.30;99.90
57753;DHT22;43583;53.132;6.574;2022-07-23T02:40:43;11.30;99.90
57753;DHT22;43583;53.132;6.574;2022-07-23T02:43:08;11.30;99.90
57753;DHT22;43583;53.132;6.574;2022-07-23T02:45:34;11.30;99.90
57753;DHT22;43583;53.132;6.574;2022-07-23T02:47:59;11.40;99.90
57753;DHT22;43583;53.132;6.574;2022-07-23T02:50:25;11.40;99.90
57753;DHT22;43583;53.132;6.574;2022-07-23T02:52:50;11.50;99.90
57753;DHT22;43583;53.132;6.574;2022-07-23T02:55:16;11.50;99.90
57753;DHT22;43583;53.132;6.574;2022-07-23T02:57:41;11.50;99.90
57753;DHT22;43583;53.132;6.574;2022-07-23T03:00:07;11.50;99.90
57753;DHT22;43583;53.132;6.574;2022-07-23T03:02:33;11.50;99.90
57753;DHT22;43583;53.132;6.574;2022-07-23T03:04:59;11.50;99.90
57753;DHT22;43583;53.132;6.574;2022-07-23T03:07:24;11.50;99.90
57753;DHT22;43583;53.132;6.574;2022-07-23T03:09:50;11.50;99.90
57753;DHT22;43583;53.132;6.574;2022-07-23T03:12:15;11.40;99.90
57753;DHT22;43583;53.132;6.574;2022-07-23T03:14:41;11.40;99.90
57753;DHT22;43583;53.132;6.574;2022-07-23T03:17:07;11.40;99.90
57753;DHT22;43583;53.132;6.574;2022-07-23T03:19:32;11.40;99.90
57753;DHT22;43583;53.132;6.574;2022-07-23T03:21:59;11.40;99.90
57753;DHT22;43583;53.132;6.574;2022-07-23T03:24:24;11.40;99.90
57753;DHT22;43583;53.132;6.574;2022-07-23T03:27:10;11.40;99.90
57753;DHT22;43583;53.132;6.574;2022-07-23T03:29:36;11.40;99.90
57753;DHT22;43583;53.132;6.574;2022-07-23T03:32:03;11.40;99.90
57753;DHT22;43583;53.132;6.574;2022-07-23T03:34:28;11.40;99.90
57753;DHT22;43583;53.132;6.574;2022-07-23T03:36:54;11.40;99.90
57753;DHT22;43583;53.132;6.574;2022-07-23T03:39:19;11.40;99.90
57753;DHT22;43583;53.132;6.574;2022-07-23T03:41:45;11.40;99.90
57753;DHT22;43583;53.132;6.574;2022-07-23T03:44:11;11.30;99.90
57753;DHT22;43583;53.132;6.574;2022-07-23T03:46:36;11.40;99.90
57753;DHT22;43583;53.132;6.574;2022-07-23T03:49:02;11.30;99.90
57753;DHT22;43583;53.132;6.574;2022-07-23T03:51:27;11.30;99.90
57753;DHT22;43583;53.132;6.574;2022-07-23T03:53:53;11.30;99.90
57753;DHT22;43583;53.132;6.574;2022-07-23T03:56:20;11.30;99.90
57753;DHT22;43583;53.132;6.574;2022-07-23T03:58:45;11.30;99.90
57753;DHT22;43583;53.132;6.574;2022-07-23T04:01:11;11.40;99.90
57753;DHT22;43583;53.132;6.574;2022-07-23T04:03:37;11.40;99.90
57753;DHT22;43583;53.132;6.574;2022-07-23T04:06:03;11.50;99.90
57753;DHT22;43583;53.132;6.574;2022-07-23T04:08:28;11.60;99.90
57753;DHT22;43583;53.132;6.574;2022-07-23T04:10:54;11.70;99.90
57753;DHT22;43583;53.132;6.574;2022-07-23T04:13:20;11.80;99.90
57753;DHT22;43583;53.132;6.574;2022-07-23T04:15:46;11.90;99.90
57753;DHT22;43583;53.132;6.574;2022-07-23T04:18:11;11.90;99.90
57753;DHT22;43583;53.132;6.574;2022-07-23T04:20:37;12.00;99.90
57753;DHT22;43583;53.132;6.574;2022-07-23T04:23:02;12.10;99.90
57753;DHT22;43583;53.132;6.574;2022-07-23T04:25:28;12.20;99.90
57753;DHT22;43583;53.132;6.574;2022-07-23T04:27:54;12.20;99.90
57753;DHT22;43583;53.132;6.574;2022-07-23T04:30:19;12.30;99.90
57753;DHT22;43583;53.132;6.574;2022-07-23T04:32:45;12.40;99.90
57753;DHT22;43583;53.132;6.574;2022-07-23T04:35:10;12.40;99.90
57753;DHT22;43583;53.132;6.574;2022-07-23T04:37:36;12.50;99.90
57753;DHT22;43583;53.132;6.574;2022-07-23T04:40:02;12.60;99.90
57753;DHT22;43583;53.132;6.574;2022-07-23T04:42:28;12.70;99.90
57753;DHT22;43583;53.132;6.574;2022-07-23T04:44:53;12.70;99.90
57753;DHT22;43583;53.132;6.574;2022-07-23T04:47:19;12.80;99.90
57753;DHT22;43583;53.132;6.574;2022-07-23T04:49:44;12.90;99.90
57753;DHT22;43583;53.132;6.574;2022-07-23T04:52:10;13.00;99.90
57753;DHT22;43583;53.132;6.574;2022-07-23T04:54:38;13.10;99.90
57753;DHT22;43583;53.132;6.574;2022-07-23T04:57:04;13.20;99.90
57753;DHT22;43583;53.132;6.574;2022-07-23T04:59:29;13.20;99.90
57753;DHT22;43583;53.132;6.574;2022-07-23T05:01:55;13.30;99.90
57753;DHT22;43583;53.132;6.574;2022-07-23T05:04:20;13.30;99.90
57753;DHT22;43583;53.132;6.574;2022-07-23T05:06:46;13.40;99.90
57753;DHT22;43583;53.132;6.574;2022-07-23T05:09:11;13.60;99.90
57753;DHT22;43583;53.132;6.574;2022-07-23T05:11:37;13.80;99.90
57753;DHT22;43583;53.132;6.574;2022-07-23T05:14:02;14.00;99.90
57753;DHT22;43583;53.132;6.574;2022-07-23T05:16:28;14.20;99.90
57753;DHT22;43583;53.132;6.574;2022-07-23T05:18:53;14.50;99.90
57753;DHT22;43583;53.132;6.574;2022-07-23T05:21:19;14.70;99.90
57753;DHT22;43583;53.132;6.574;2022-07-23T05:23:45;15.00;99.90
57753;DHT22;43583;53.132;6.574;2022-07-23T05:26:10;15.50;99.90
57753;DHT22;43583;53.132;6.574;2022-07-23T05:28:36;16.30;99.90
57753;DHT22;43583;53.132;6.574;2022-07-23T05:31:02;17.50;99.90
57753;DHT22;43583;53.132;6.574;2022-07-23T05:33:29;18.10;99.90
57753;DHT22;43583;53.132;6.574;2022-07-23T05:36:00;18.30;99.90
57753;DHT22;43583;53.132;6.574;2022-07-23T05:38:26;18.30;99.90
57753;DHT22;43583;53.132;6.574;2022-07-23T05:40:52;18.10;99.90
57753;DHT22;43583;53.132;6.574;2022-07-23T05:43:18;18.00;99.90
57753;DHT22;43583;53.132;6.574;2022-07-23T05:45:43;17.90;99.90
57753;DHT22;43583;53.132;6.574;2022-07-23T05:48:09;17.80;99.90
57753;DHT22;43583;53.132;6.574;2022-07-23T05:50:34;17.70;99.90
57753;DHT22;43583;53.132;6.574;2022-07-23T05:53:00;17.90;99.90
57753;DHT22;43583;53.132;6.574;2022-07-23T05:55:25;18.90;99.90
57753;DHT22;43583;53.132;6.574;2022-07-23T05:57:57;20.20;99.90
57753;DHT22;43583;53.132;6.574;2022-07-23T06:00:23;21.60;99.90
57753;DHT22;43583;53.132;6.574;2022-07-23T06:02:49;22.60;99.90
57753;DHT22;43583;53.132;6.574;2022-07-23T06:05:15;23.70;99.90
57753;DHT22;43583;53.132;6.574;2022-07-23T06:07:40;24.70;99.90
57753;DHT22;43583;53.132;6.574;2022-07-23T06:10:06;25.40;97.70
57753;DHT22;43583;53.132;6.574;2022-07-23T06:12:33;26.00;92.40
57753;DHT22;43583;53.132;6.574;2022-07-23T06:14:58;26.50;90.80
57753;DHT22;43583;53.132;6.574;2022-07-23T06:17:24;27.10;87.10
57753;DHT22;43583;53.132;6.574;2022-07-23T06:19:50;27.60;81.30
57753;DHT22;43583;53.132;6.574;2022-07-23T06:22:15;27.90;75.50
57753;DHT22;43583;53.132;6.574;2022-07-23T06:24:41;27.10;71.90
57753;DHT22;43583;53.132;6.574;2022-07-23T06:27:07;25.90;73.40
57753;DHT22;43583;53.132;6.574;2022-07-23T06:29:32;24.80;75.40
57753;DHT22;43583;53.132;6.574;2022-07-23T06:31:58;24.00;81.20
57753;DHT22;43583;53.132;6.574;2022-07-23T06:34:23;23.40;84.20
57753;DHT22;43583;53.132;6.574;2022-07-23T06:36:49;23.20;87.80
57753;DHT22;43583;53.132;6.574;2022-07-23T06:39:15;23.20;88.50
57753;DHT22;43583;53.132;6.574;2022-07-23T06:41:41;23.00;89.80
57753;DHT22;43583;53.132;6.574;2022-07-23T06:44:07;22.90;90.60
57753;DHT22;43583;53.132;6.574;2022-07-23T06:46:32;22.80;90.50
57753;DHT22;43583;53.132;6.574;2022-07-23T06:48:58;23.10;91.40
57753;DHT22;43583;53.132;6.574;2022-07-23T06:51:24;23.30;90.50
57753;DHT22;43583;53.132;6.574;2022-07-23T06:53:50;24.00;89.80
57753;DHT22;43583;53.132;6.574;2022-07-23T06:56:15;24.40;86.00
57753;DHT22;43583;53.132;6.574;2022-07-23T06:58:41;24.70;83.60
57753;DHT22;43583;53.132;6.574;2022-07-23T07:01:07;24.70;82.20
57753;DHT22;43583;53.132;6.574;2022-07-23T07:03:32;24.60;81.10
57753;DHT22;43583;53.132;6.574;2022-07-23T07:05:58;24.70;83.20
57753;DHT22;43583;53.132;6.574;2022-07-23T07:08:23;25.00;82.50
57753;DHT22;43583;53.132;6.574;2022-07-23T07:10:49;25.40;81.10
57753;DHT22;43583;53.132;6.574;2022-07-23T07:13:15;25.70;78.00
57753;DHT22;43583;53.132;6.574;2022-07-23T07:15:40;26.20;77.60
57753;DHT22;43583;53.132;6.574;2022-07-23T07:18:06;26.90;73.60
57753;DHT22;43583;53.132;6.574;2022-07-23T07:20:32;27.10;72.90
57753;DHT22;43583;53.132;6.574;2022-07-23T07:22:57;26.40;70.00
57753;DHT22;43583;53.132;6.574;2022-07-23T07:25:23;25.30;71.30
57753;DHT22;43583;53.132;6.574;2022-07-23T07:27:49;24.60;74.10
57753;DHT22;43583;53.132;6.574;2022-07-23T07:30:14;24.70;75.60
57753;DHT22;43583;53.132;6.574;2022-07-23T07:32:40;24.60;74.80
57753;DHT22;43583;53.132;6.574;2022-07-23T07:35:06;24.30;76.00
57753;DHT22;43583;53.132;6.574;2022-07-23T07:37:31;23.90;77.90
57753;DHT22;43583;53.132;6.574;2022-07-23T07:39:57;23.20;78.70
57753;DHT22;43583;53.132;6.574;2022-07-23T07:42:23;22.60;80.80
57753;DHT22;43583;53.132;6.574;2022-07-23T07:44:48;22.10;82.00
57753;DHT22;43583;53.132;6.574;2022-07-23T07:47:14;22.40;84.60
57753;DHT22;43583;53.132;6.574;2022-07-23T07:49:41;23.10;82.40
57753;DHT22;43583;53.132;6.574;2022-07-23T07:52:07;24.60;80.90
57753;DHT22;43583;53.132;6.574;2022-07-23T07:54:33;26.00;76.40
57753;DHT22;43583;53.132;6.574;2022-07-23T07:56:59;26.20;70.00
57753;DHT22;43583;53.132;6.574;2022-07-23T07:59:24;26.00;69.20
57753;DHT22;43583;53.132;6.574;2022-07-23T08:01:50;25.60;67.50
57753;DHT22;43583;53.132;6.574;2022-07-23T08:04:16;25.00;68.30
57753;DHT22;43583;53.132;6.574;2022-07-23T08:06:42;24.50;70.10
57753;DHT22;43583;53.132;6.574;2022-07-23T08:09:07;23.90;72.20
57753;DHT22;43583;53.132;6.574;2022-07-23T08:11:33;23.70;72.90
57753;DHT22;43583;53.132;6.574;2022-07-23T08:13:59;24.00;72.50
57753;DHT22;43583;53.132;6.574;2022-07-23T08:16:24;23.80;70.60
57753;DHT22;43583;53.132;6.574;2022-07-23T08:18:50;23.50;71.40
57753;DHT22;43583;53.132;6.574;2022-07-23T08:21:15;22.90;72.80
57753;DHT22;43583;53.132;6.574;2022-07-23T08:23:44;22.70;74.40
57753;DHT22;43583;53.132;6.574;2022-07-23T08:26:10;23.50;76.80
57753;DHT22;43583;53.132;6.574;2022-07-23T08:28:36;24.60;71.90
57753;DHT22;43583;53.132;6.574;2022-07-23T08:31:02;26.00;68.20
57753;DHT22;43583;53.132;6.574;2022-07-23T08:33:27;26.90;62.60
57753;DHT22;43583;53.132;6.574;2022-07-23T08:35:53;26.90;64.50
57753;DHT22;43583;53.132;6.574;2022-07-23T08:38:21;26.90;62.30
57753;DHT22;43583;53.132;6.574;2022-07-23T08:40:50;26.40;61.50
57753;DHT22;43583;53.132;6.574;2022-07-23T08:43:18;25.90;64.00
57753;DHT22;43583;53.132;6.574;2022-07-23T08:45:46;26.50;65.50
57753;DHT22;43583;53.132;6.574;2022-07-23T08:48:20;27.10;63.20
57753;DHT22;43583;53.132;6.574;2022-07-23T08:50:48;27.00;61.50
57753;DHT22;43583;53.132;6.574;2022-07-23T08:53:16;26.60;61.20
57753;DHT22;43583;53.132;6.574;2022-07-23T08:55:49;25.80;61.00
57753;DHT22;43583;53.132;6.574;2022-07-23T08:58:16;25.20;62.30
57753;DHT22;43583;53.132;6.574;2022-07-23T09:00:42;24.70;64.10
57753;DHT22;43583;53.132;6.574;2022-07-23T09:03:16;24.40;66.80
57753;DHT22;43583;53.132;6.574;2022-07-23T09:05:41;24.60;69.20
57753;DHT22;43583;53.132;6.574;2022-07-23T09:08:13;25.20;67.60
57753;DHT22;43583;53.132;6.574;2022-07-23T09:13:38;25.70;66.70
57753;DHT22;43583;53.132;6.574;2022-07-23T09:16:16;25.40;64.10
57753;DHT22;43583;53.132;6.574;2022-07-23T09:18:53;24.90;64.60
57753;DHT22;43583;53.132;6.574;2022-07-23T09:21:29;24.30;66.00
57753;DHT22;43583;53.132;6.574;2022-07-23T09:24:04;23.70;70.60
57753;DHT22;43583;53.132;6.574;2022-07-23T09:26:40;23.40;71.20
57753;DHT22;43583;53.132;6.574;2022-07-23T09:34:34;23.20;75.30
57753;DHT22;43583;53.132;6.574;2022-07-23T09:37:11;23.30;73.60
57753;DHT22;43583;53.132;6.574;2022-07-23T09:39:38;23.30;74.90
57753;DHT22;43583;53.132;6.574;2022-07-23T09:42:14;23.30;75.10
57753;DHT22;43583;53.132;6.574;2022-07-23T09:44:44;23.50;76.10
57753;DHT22;43583;53.132;6.574;2022-07-23T09:47:10;23.50;73.50
57753;DHT22;43583;53.132;6.574;2022-07-23T09:49:35;23.60;74.90
57753;DHT22;43583;53.132;6.574;2022-07-23T09:52:02;23.70;75.20
57753;DHT22;43583;53.132;6.574;2022-07-23T09:54:38;23.80;75.00
57753;DHT22;43583;53.132;6.574;2022-07-23T09:57:08;23.60;72.90
57753;DHT22;43583;53.132;6.574;2022-07-23T09:59:38;23.70;75.80
57753;DHT22;43583;53.132;6.574;2022-07-23T10:02:06;23.80;74.00
57753;DHT22;43583;53.132;6.574;2022-07-23T10:04:32;23.80;73.80
57753;DHT22;43583;53.132;6.574;2022-07-23T10:07:00;23.70;74.80
57753;DHT22;43583;53.132;6.574;2022-07-23T10:09:34;23.70;76.80
57753;DHT22;43583;53.132;6.574;2022-07-23T10:12:03;23.80;76.40
57753;DHT22;43583;53.132;6.574;2022-07-23T10:14:48;23.80;75.60
57753;DHT22;43583;53.132;6.574;2022-07-23T10:17:17;23.70;76.70
57753;DHT22;43583;53.132;6.574;2022-07-23T10:19:43;23.70;76.10
57753;DHT22;43583;53.132;6.574;2022-07-23T10:22:14;23.60;76.90
57753;DHT22;43583;53.132;6.574;2022-07-23T10:24:59;23.60;75.90
57753;DHT22;43583;53.132;6.574;2022-07-23T10:28:04;23.50;76.30
57753;DHT22;43583;53.132;6.574;2022-07-23T10:33:41;23.50;81.00
57753;DHT22;43583;53.132;6.574;2022-07-23T10:36:32;23.20;77.60
57753;DHT22;43583;53.132;6.574;2022-07-23T10:39:20;23.10;80.00
57753;DHT22;43583;53.132;6.574;2022-07-23T10:41:47;23.00;80.20
57753;DHT22;43583;53.132;6.574;2022-07-23T10:44:18;22.80;81.20
57753;DHT22;43583;53.132;6.574;2022-07-23T10:47:02;22.80;81.90
57753;DHT22;43583;53.132;6.574;2022-07-23T10:49:43;22.80;81.60
57753;DHT22;43583;53.132;6.574;2022-07-23T10:52:21;22.80;80.30
57753;DHT22;43583;53.132;6.574;2022-07-23T10:57:50;23.00;80.80
57753;DHT22;43583;53.132;6.574;2022-07-23T11:00:21;22.80;80.30
57753;DHT22;43583;53.132;6.574;2022-07-23T11:02:49;22.70;79.50
57753;DHT22;43583;53.132;6.574;2022-07-23T11:05:17;22.60;80.00
57753;DHT22;43583;53.132;6.574;2022-07-23T11:16:03;22.00;85.20
57753;DHT22;43583;53.132;6.574;2022-07-23T11:24:06;21.80;90.00
57753;DHT22;43583;53.132;6.574;2022-07-23T11:26:54;21.70;89.30
57753;DHT22;43583;53.132;6.574;2022-07-23T11:32:02;21.40;90.40
57753;DHT22;43583;53.132;6.574;2022-07-23T11:34:35;21.30;91.40
57753;DHT22;43583;53.132;6.574;2022-07-23T11:37:03;21.40;92.00
57753;DHT22;43583;53.132;6.574;2022-07-23T11:39:30;21.50;92.70
57753;DHT22;43583;53.132;6.574;2022-07-23T11:41:57;21.60;93.50
57753;DHT22;43583;53.132;6.574;2022-07-23T11:44:31;21.80;92.80
57753;DHT22;43583;53.132;6.574;2022-07-23T11:46:58;22.30;93.00
57753;DHT22;43583;53.132;6.574;2022-07-23T11:49:25;22.80;92.70
57753;DHT22;43583;53.132;6.574;2022-07-23T11:52:11;23.20;91.50
57753;DHT22;43583;53.132;6.574;2022-07-23T11:54:48;23.40;89.30
57753;DHT22;43583;53.132;6.574;2022-07-23T11:57:14;23.50;89.80
57753;DHT22;43583;53.132;6.574;2022-07-23T11:59:40;23.60;90.30
57753;DHT22;43583;53.132;6.574;2022-07-23T12:02:06;24.10;90.70
57753;DHT22;43583;53.132;6.574;2022-07-23T12:04:44;24.40;90.60
57753;DHT22;43583;53.132;6.574;2022-07-23T12:07:37;24.60;87.50
57753;DHT22;43583;53.132;6.574;2022-07-23T12:12:39;24.90;85.10
57753;DHT22;43583;53.132;6.574;2022-07-23T12:15:06;24.70;81.30
57753;DHT22;43583;53.132;6.574;2022-07-23T12:17:34;24.30;82.60
57753;DHT22;43583;53.132;6.574;2022-07-23T12:20:01;24.10;83.90
57753;DHT22;43583;53.132;6.574;2022-07-23T12:22:35;23.80;83.40
57753;DHT22;43583;53.132;6.574;2022-07-23T12:25:07;23.90;84.80
57753;DHT22;43583;53.132;6.574;2022-07-23T12:27:34;23.90;84.80
57753;DHT22;43583;53.132;6.574;2022-07-23T12:30:18;24.10;86.90
57753;DHT22;43583;53.132;6.574;2022-07-23T12:32:50;24.00;80.70
57753;DHT22;43583;53.132;6.574;2022-07-23T12:35:16;23.90;82.00
57753;DHT22;43583;53.132;6.574;2022-07-23T12:37:43;24.10;85.20
57753;DHT22;43583;53.132;6.574;2022-07-23T12:43:08;24.20;87.70
57753;DHT22;43583;53.132;6.574;2022-07-23T12:45:54;24.40;87.10
57753;DHT22;43583;53.132;6.574;2022-07-23T12:48:26;24.50;86.50
57753;DHT22;43583;53.132;6.574;2022-07-23T12:50:57;24.40;86.80
57753;DHT22;43583;53.132;6.574;2022-07-23T12:53:32;24.20;86.40
57753;DHT22;43583;53.132;6.574;2022-07-23T12:56:08;23.90;83.10
57753;DHT22;43583;53.132;6.574;2022-07-23T13:03:56;24.00;83.90
57753;DHT22;43583;53.132;6.574;2022-07-23T13:06:22;23.90;82.50
57753;DHT22;43583;53.132;6.574;2022-07-23T13:08:48;24.20;85.30
57753;DHT22;43583;53.132;6.574;2022-07-23T13:11:14;24.20;84.70
57753;DHT22;43583;53.132;6.574;2022-07-23T13:13:39;24.30;83.20
57753;DHT22;43583;53.132;6.574;2022-07-23T13:16:06;24.00;81.50
57753;DHT22;43583;53.132;6.574;2022-07-23T13:18:32;23.80;81.40
57753;DHT22;43583;53.132;6.574;2022-07-23T13:20:58;23.60;83.70
57753;DHT22;43583;53.132;6.574;2022-07-23T13:23:24;23.40;84.20
57753;DHT22;43583;53.132;6.574;2022-07-23T13:25:50;23.20;85.70
57753;DHT22;43583;53.132;6.574;2022-07-23T13:28:18;23.10;86.10
57753;DHT22;43583;53.132;6.574;2022-07-23T13:30:44;23.20;88.30
57753;DHT22;43583;53.132;6.574;2022-07-23T13:33:10;23.30;87.00
57753;DHT22;43583;53.132;6.574;2022-07-23T13:35:36;23.40;87.60
57753;DHT22;43583;53.132;6.574;2022-07-23T13:38:03;23.50;89.40
57753;DHT22;43583;53.132;6.574;2022-07-23T13:40:29;23.90;89.50
57753;DHT22;43583;53.132;6.574;2022-07-23T13:42:54;24.20;90.10
57753;DHT22;43583;53.132;6.574;2022-07-23T13:45:20;24.40;88.60
57753;DHT22;43583;53.132;6.574;2022-07-23T13:47:46;24.40;84.00
57753;DHT22;43583;53.132;6.574;2022-07-23T13:50:11;24.20;82.30
57753;DHT22;43583;53.132;6.574;2022-07-23T13:52:37;23.80;80.90
57753;DHT22;43583;53.132;6.574;2022-07-23T13:55:04;23.70;82.90
57753;DHT22;43583;53.132;6.574;2022-07-23T13:57:31;23.50;81.80
57753;DHT22;43583;53.132;6.574;2022-07-23T13:59:57;23.40;82.80
57753;DHT22;43583;53.132;6.574;2022-07-23T14:02:23;23.30;84.40
57753;DHT22;43583;53.132;6.574;2022-07-23T14:04:49;23.30;85.10
57753;DHT22;43583;53.132;6.574;2022-07-23T14:07:15;23.40;85.80
57753;DHT22;43583;53.132;6.574;2022-07-23T14:09:41;23.60;85.90
57753;DHT22;43583;53.132;6.574;2022-07-23T14:12:07;23.60;84.70
57753;DHT22;43583;53.132;6.574;2022-07-23T14:14:33;23.80;83.70
57753;DHT22;43583;53.132;6.574;2022-07-23T14:16:58;24.10;83.80
57753;DHT22;43583;53.132;6.574;2022-07-23T14:19:24;24.20;84.40
57753;DHT22;43583;53.132;6.574;2022-07-23T14:21:50;24.20;82.50
57753;DHT22;43583;53.132;6.574;2022-07-23T14:24:16;24.10;81.40
57753;DHT22;43583;53.132;6.574;2022-07-23T14:26:41;24.00;82.50
57753;DHT22;43583;53.132;6.574;2022-07-23T14:29:07;24.00;82.60
57753;DHT22;43583;53.132;6.574;2022-07-23T14:31:33;24.00;81.60
57753;DHT22;43583;53.132;6.574;2022-07-23T14:33:58;23.90;81.60
57753;DHT22;43583;53.132;6.574;2022-07-23T14:36:25;23.80;82.60
57753;DHT22;43583;53.132;6.574;2022-07-23T14:38:51;23.40;80.10
57753;DHT22;43583;53.132;6.574;2022-07-23T14:41:16;23.30;83.00
57753;DHT22;43583;53.132;6.574;2022-07-23T14:43:42;23.30;83.60
57753;DHT22;43583;53.132;6.574;2022-07-23T14:46:08;23.30;85.20
57753;DHT22;43583;53.132;6.574;2022-07-23T14:48:34;23.30;85.20
57753;DHT22;43583;53.132;6.574;2022-07-23T14:50:59;23.20;86.70
57753;DHT22;43583;53.132;6.574;2022-07-23T14:53:25;23.30;87.90
57753;DHT22;43583;53.132;6.574;2022-07-23T14:55:50;23.30;86.20
57753;DHT22;43583;53.132;6.574;2022-07-23T14:58:16;23.40;87.50
57753;DHT22;43583;53.132;6.574;2022-07-23T15:00:43;23.30;87.10
57753;DHT22;43583;53.132;6.574;2022-07-23T15:03:08;23.30;87.20
57753;DHT22;43583;53.132;6.574;2022-07-23T15:05:34;23.50;89.00
57753;DHT22;43583;53.132;6.574;2022-07-23T15:07:59;23.70;89.90
57753;DHT22;43583;53.132;6.574;2022-07-23T15:10:25;23.90;89.00
57753;DHT22;43583;53.132;6.574;2022-07-23T15:12:50;24.00;87.30
57753;DHT22;43583;53.132;6.574;2022-07-23T15:15:16;24.20;86.90
57753;DHT22;43583;53.132;6.574;2022-07-23T15:17:43;24.20;84.00
57753;DHT22;43583;53.132;6.574;2022-07-23T15:20:08;24.20;83.60
57753;DHT22;43583;53.132;6.574;2022-07-23T15:22:34;24.10;83.30
57753;DHT22;43583;53.132;6.574;2022-07-23T15:24:59;24.20;83.60
57753;DHT22;43583;53.132;6.574;2022-07-23T15:27:26;24.20;83.60
57753;DHT22;43583;53.132;6.574;2022-07-23T15:29:52;24.20;84.10
57753;DHT22;43583;53.132;6.574;2022-07-23T15:32:17;24.30;84.80
57753;DHT22;43583;53.132;6.574;2022-07-23T15:34:43;24.20;81.50
57753;DHT22;43583;53.132;6.574;2022-07-23T15:37:08;24.20;81.70
57753;DHT22;43583;53.132;6.574;2022-07-23T15:39:34;24.10;83.10
57753;DHT22;43583;53.132;6.574;2022-07-23T15:42:00;24.00;84.00
57753;DHT22;43583;53.132;6.574;2022-07-23T15:44:26;23.90;82.50
57753;DHT22;43583;53.132;6.574;2022-07-23T15:46:52;23.70;82.70
57753;DHT22;43583;53.132;6.574;2022-07-23T15:49:17;23.70;85.80
57753;DHT22;43583;53.132;6.574;2022-07-23T15:51:43;23.50;87.10
57753;DHT22;43583;53.132;6.574;2022-07-23T15:54:09;23.40;87.60
57753;DHT22;43583;53.132;6.574;2022-07-23T15:56:34;23.50;86.90
57753;DHT22;43583;53.132;6.574;2022-07-23T15:59:00;23.40;85.90
57753;DHT22;43583;53.132;6.574;2022-07-23T16:01:25;23.30;85.80
57753;DHT22;43583;53.132;6.574;2022-07-23T16:03:54;23.10;86.80
57753;DHT22;43583;53.132;6.574;2022-07-23T16:06:20;23.10;84.70
57753;DHT22;43583;53.132;6.574;2022-07-23T16:08:46;23.10;86.10
57753;DHT22;43583;53.132;6.574;2022-07-23T16:11:11;23.00;85.10